createdAt,value
2022-08-23T00:00:51.499Z,19.90
2022-08-23T00:03:57.056Z,20.00
2022-08-23T00:07:01.299Z,19.90
2022-08-23T00:10:06.240Z,19.80
2022-08-23T00:13:10.424Z,19.80
2022-08-23T00:16:13.563Z,19.70
2022-08-23T00:19:18.347Z,19.70
2022-08-23T00:22:21.479Z,19.60
2022-08-23T00:25:26.006Z,19.60
2022-08-23T00:28:29.086Z,19.50
2022-08-23T00:31:32.168Z,19.50
2022-08-23T00:34:35.762Z,19.30
2022-08-23T00:37:39.708Z,19.20
2022-08-23T00:40:45.327Z,19.10
2022-08-23T00:44:05.549Z,19.10
2022-08-23T00:47:27.464Z,19.10
2022-08-23T00:50:36.449Z,18.90
2022-08-23T00:53:43.703Z,19.00
2022-08-23T00:56:48.210Z,19.10
2022-08-23T00:59:51.829Z,19.10
2022-08-23T01:02:57.151Z,19.10
2022-08-23T01:06:07.268Z,19.00
2022-08-23T01:09:13.188Z,19.00
2022-08-23T01:12:31.106Z,18.90
2022-08-23T01:15:41.137Z,18.80
2022-08-23T01:18:45.197Z,18.70
2022-08-23T01:21:54.263Z,18.70
2022-08-23T01:25:07.690Z,18.80
2022-08-23T01:28:11.914Z,18.80
2022-08-23T01:31:16.503Z,18.80
2022-08-23T01:34:19.607Z,18.80
2022-08-23T01:37:23.130Z,18.90
2022-08-23T01:40:28.796Z,18.90
2022-08-23T01:43:31.961Z,18.90
2022-08-23T01:46:35.194Z,18.80
2022-08-23T01:49:38.310Z,18.80
2022-08-23T01:52:46.744Z,18.80
2022-08-23T01:55:51.567Z,18.80
2022-08-23T01:58:54.749Z,18.70
2022-08-23T02:01:57.989Z,18.70
2022-08-23T02:05:01.150Z,18.70
2022-08-23T02:08:18.529Z,18.70
2022-08-23T02:11:25.399Z,18.70
2022-08-23T02:14:28.468Z,18.70
2022-08-23T02:17:31.646Z,18.70
2022-08-23T02:20:34.863Z,18.70
2022-08-23T02:23:39.319Z,18.80
2022-08-23T02:26:48.213Z,18.80
2022-08-23T02:29:59.745Z,18.70
2022-08-23T02:33:06.589Z,18.70
2022-08-23T02:36:10.114Z,18.70
2022-08-23T02:39:15.090Z,18.70
2022-08-23T02:42:19.600Z,18.70
2022-08-23T02:45:22.771Z,18.70
2022-08-23T02:48:25.954Z,18.70
2022-08-23T02:51:29.127Z,18.80
2022-08-23T02:54:32.266Z,18.70
2022-08-23T02:57:37.085Z,18.70
2022-08-23T03:00:40.254Z,18.70
2022-08-23T03:03:43.403Z,18.60
2022-08-23T03:06:46.556Z,18.60
2022-08-23T03:09:49.688Z,18.70
2022-08-23T03:12:54.186Z,18.70
2022-08-23T03:15:57.374Z,18.70
2022-08-23T03:19:02.308Z,18.60
2022-08-23T03:22:05.571Z,18.60
2022-08-23T03:25:09.311Z,18.60
2022-08-23T03:28:13.853Z,18.50
2022-08-23T03:31:17.580Z,18.50
2022-08-23T03:34:20.692Z,18.50
2022-08-23T03:37:23.971Z,18.50
2022-08-23T03:40:27.371Z,18.50
2022-08-23T03:43:32.140Z,18.50
2022-08-23T03:46:35.325Z,18.50
2022-08-23T03:49:38.449Z,18.50
2022-08-23T03:52:41.575Z,18.50
2022-08-23T03:55:45.165Z,18.40
2022-08-23T03:58:50.187Z,18.40
2022-08-23T04:01:53.297Z,18.50
2022-08-23T04:04:58.067Z,18.40
2022-08-23T04:08:02.522Z,18.40
2022-08-23T04:11:06.808Z,18.40
2022-08-23T04:14:13.258Z,18.40
2022-08-23T04:17:17.860Z,18.40
2022-08-23T04:20:21.134Z,18.40
2022-08-23T04:23:24.900Z,18.30
2022-08-23T04:26:30.259Z,18.30
2022-08-23T04:29:35.190Z,18.20
2022-08-23T04:32:38.340Z,18.20
2022-08-23T04:35:42.412Z,18.20
2022-08-23T04:38:45.588Z,18.20
2022-08-23T04:42:05.777Z,18.10
2022-08-23T04:45:11.723Z,18.00
2022-08-23T04:48:14.853Z,18.00
2022-08-23T04:51:18.455Z,18.00
2022-08-23T04:54:22.776Z,18.10
2022-08-23T04:57:26.609Z,18.00
2022-08-23T05:00:31.137Z,18.00
2022-08-23T05:03:34.434Z,18.00
2022-08-23T05:06:37.901Z,18.10
2022-08-23T05:09:41.055Z,18.10
2022-08-23T05:12:44.242Z,18.10
2022-08-23T05:15:51.747Z,18.10
2022-08-23T05:18:54.879Z,18.10
2022-08-23T05:21:57.997Z,18.10
2022-08-23T05:25:01.099Z,18.20
2022-08-23T05:28:04.652Z,18.30
2022-08-23T05:31:13.227Z,18.30
2022-08-23T05:34:16.432Z,18.40
2022-08-23T05:37:25.655Z,18.40
2022-08-23T05:40:29.407Z,18.30
2022-08-23T05:43:33.440Z,18.30
2022-08-23T05:46:38.958Z,18.30
2022-08-23T05:49:42.581Z,18.30
2022-08-23T05:52:50.341Z,18.40
2022-08-23T05:55:54.144Z,18.40
2022-08-23T05:58:59.933Z,18.60
2022-08-23T06:02:06.146Z,18.50
2022-08-23T06:05:10.282Z,18.60
2022-08-23T06:08:13.418Z,18.60
2022-08-23T06:11:20.188Z,18.50
2022-08-23T06:14:23.722Z,18.40
2022-08-23T06:17:28.250Z,18.30
2022-08-23T06:20:31.443Z,18.20
2022-08-23T06:23:34.958Z,18.20
2022-08-23T06:26:39.828Z,18.20
2022-08-23T06:29:45.845Z,18.20
2022-08-23T06:32:51.703Z,18.20
2022-08-23T06:36:04.659Z,18.30
2022-08-23T06:39:09.335Z,18.40
2022-08-23T06:42:37.680Z,18.50
2022-08-23T06:45:37.702Z,18.60
2022-08-23T06:48:44.435Z,18.70
2022-08-23T06:51:51.255Z,18.80
2022-08-23T06:54:55.734Z,18.90
2022-08-23T06:58:01.520Z,19.00
2022-08-23T07:01:28.838Z,19.10
2022-08-23T07:04:40.119Z,19.10
2022-08-23T07:07:44.453Z,19.20
2022-08-23T07:10:47.889Z,19.20
2022-08-23T07:13:52.898Z,19.30
2022-08-23T07:16:58.241Z,19.30
2022-08-23T07:20:03.085Z,19.30
2022-08-23T07:23:06.215Z,19.30
2022-08-23T07:26:12.645Z,19.40
2022-08-23T07:29:17.579Z,19.30
2022-08-23T07:32:20.809Z,19.30
2022-08-23T07:35:25.302Z,19.30
2022-08-23T07:38:30.534Z,19.20
2022-08-23T07:41:35.790Z,19.20
2022-08-23T07:44:38.947Z,19.20
2022-08-23T07:47:46.823Z,19.30
2022-08-23T07:50:58.058Z,19.40
2022-08-23T07:54:03.091Z,19.60
2022-08-23T07:57:06.232Z,19.80
2022-08-23T08:00:10.321Z,20.00
2022-08-23T08:03:14.618Z,20.10
2022-08-23T08:06:21.596Z,20.20
2022-08-23T08:09:24.796Z,20.40
2022-08-23T08:12:29.443Z,20.60
2022-08-23T08:15:32.854Z,20.90
2022-08-23T08:18:36.093Z,21.40
2022-08-23T08:21:41.880Z,23.60
2022-08-23T08:24:45.702Z,27.00
2022-08-23T08:27:48.795Z,30.10
2022-08-23T08:30:52.566Z,31.10
2022-08-23T08:33:55.969Z,30.20
2022-08-23T08:37:00.422Z,28.60
2022-08-23T08:40:04.585Z,27.10
2022-08-23T08:43:22.726Z,26.00
2022-08-23T08:46:33.364Z,25.20
2022-08-23T08:49:41.608Z,24.60
2022-08-23T08:52:50.129Z,24.10
2022-08-23T08:55:58.849Z,23.80
2022-08-23T08:59:06.554Z,23.40
2022-08-23T09:02:31.932Z,23.40
2022-08-23T09:05:40.750Z,23.30
2022-08-23T09:09:02.204Z,23.30
2022-08-23T09:12:16.169Z,23.20
2022-08-23T09:15:30.129Z,23.10
2022-08-23T09:18:36.660Z,23.00
2022-08-23T09:21:45.608Z,23.10
2022-08-23T09:24:50.076Z,23.00
2022-08-23T09:27:53.207Z,22.90
2022-08-23T09:30:59.607Z,22.90
2022-08-23T09:34:02.875Z,22.90
2022-08-23T09:37:15.020Z,23.20
2022-08-23T09:40:25.209Z,23.50
2022-08-23T09:43:31.496Z,23.90
2022-08-23T09:46:39.139Z,24.20
2022-08-23T09:49:43.628Z,24.60
2022-08-23T09:52:50.335Z,25.20
2022-08-23T09:55:58.030Z,25.60
2022-08-23T09:59:01.401Z,25.90
2022-08-23T10:02:06.416Z,26.20
2022-08-23T10:05:21.048Z,26.40
2022-08-23T10:08:28.471Z,26.70
2022-08-23T10:11:36.848Z,26.70
2022-08-23T10:14:40.019Z,26.90
2022-08-23T10:17:54.296Z,27.00
2022-08-23T10:21:03.059Z,27.10
2022-08-23T10:24:16.570Z,27.00
2022-08-23T10:27:50.577Z,26.60
2022-08-23T10:31:02.447Z,26.40
2022-08-23T10:34:21.030Z,26.00
2022-08-23T10:37:34.923Z,25.80
2022-08-23T10:40:45.359Z,25.40
2022-08-23T10:43:58.932Z,24.50
2022-08-23T10:47:20.711Z,24.10
2022-08-23T10:50:24.187Z,24.00
2022-08-23T10:53:36.067Z,23.90
2022-08-23T10:56:44.792Z,23.70
2022-08-23T10:59:56.035Z,23.50
2022-08-23T11:03:11.402Z,23.50
2022-08-23T11:06:44.779Z,23.30
2022-08-23T11:10:00.315Z,23.10
2022-08-23T11:13:09.511Z,23.10
2022-08-23T11:16:25.327Z,23.00
2022-08-23T11:19:48.593Z,22.90
2022-08-23T11:23:14.360Z,22.80
2022-08-23T11:27:06.355Z,22.70
2022-08-23T11:30:47.115Z,22.70
2022-08-23T11:34:01.201Z,22.80
2022-08-23T11:37:28.687Z,22.80
2022-08-23T11:41:06.607Z,22.80
2022-08-23T11:44:28.962Z,22.80
2022-08-23T11:47:42.665Z,22.70
2022-08-23T11:51:23.374Z,22.70
2022-08-23T11:54:40.800Z,22.70
2022-08-23T11:58:05.702Z,22.70
2022-08-23T12:01:11.708Z,22.80
2022-08-23T12:04:34.363Z,22.80
2022-08-23T12:07:54.284Z,23.00
2022-08-23T12:11:16.379Z,23.20
2022-08-23T12:14:38.188Z,23.30
2022-08-23T12:18:13.284Z,23.40
2022-08-23T12:21:22.283Z,23.50
2022-08-23T12:24:32.636Z,23.50
2022-08-23T12:27:40.044Z,23.60
2022-08-23T12:30:56.306Z,23.60
2022-08-23T12:34:13.262Z,23.60
2022-08-23T12:37:30.166Z,23.60
2022-08-23T12:40:39.851Z,23.60
2022-08-23T12:44:01.628Z,23.40
2022-08-23T12:47:14.245Z,23.40
2022-08-23T12:50:32.584Z,23.40
2022-08-23T12:53:44.510Z,23.30
2022-08-23T12:56:51.804Z,23.30
2022-08-23T13:00:16.321Z,23.30
2022-08-23T13:03:24.031Z,23.10
2022-08-23T13:06:32.150Z,23.00
2022-08-23T13:09:38.968Z,22.90
2022-08-23T13:12:44.039Z,22.90
2022-08-23T13:15:53.140Z,22.80
2022-08-23T13:18:57.498Z,22.80
2022-08-23T13:22:15.019Z,22.90
2022-08-23T13:25:31.328Z,23.00
2022-08-23T13:28:36.562Z,23.10
2022-08-23T13:32:04.242Z,23.30
2022-08-23T13:35:32.263Z,23.60
2022-08-23T13:38:37.461Z,23.90
2022-08-23T13:41:44.509Z,24.10
2022-08-23T13:44:49.041Z,24.20
2022-08-23T13:47:56.479Z,24.30
2022-08-23T13:51:28.879Z,24.60
2022-08-23T13:54:33.720Z,24.70
2022-08-23T13:57:41.193Z,24.70
2022-08-23T14:00:55.616Z,24.70
2022-08-23T14:03:59.094Z,24.80
2022-08-23T14:07:02.280Z,24.90
2022-08-23T14:10:06.465Z,24.70
2022-08-23T14:13:11.026Z,24.60
2022-08-23T14:16:35.309Z,24.50
2022-08-23T14:23:12.259Z,24.40
2022-08-23T14:26:19.379Z,24.40
2022-08-23T14:29:23.573Z,24.20
2022-08-23T14:32:28.689Z,23.90
2022-08-23T14:35:32.405Z,23.70
2022-08-23T14:38:36.039Z,23.60
2022-08-23T14:41:39.258Z,23.50
2022-08-23T14:44:42.448Z,23.30
2022-08-23T14:47:47.087Z,23.20
2022-08-23T14:50:50.631Z,23.20
2022-08-23T14:53:54.361Z,23.10
2022-08-23T14:56:58.148Z,23.10
2022-08-23T15:00:01.411Z,23.10
2022-08-23T15:03:10.215Z,23.10
2022-08-23T15:06:14.935Z,23.10
2022-08-23T15:09:18.068Z,23.20
2022-08-23T15:15:45.376Z,23.20
2022-08-23T15:18:52.007Z,23.20
2022-08-23T15:21:55.110Z,23.20
2022-08-23T15:24:58.288Z,23.20
2022-08-23T15:28:02.136Z,23.20
2022-08-23T15:31:05.750Z,23.20
2022-08-23T15:34:12.789Z,23.20
2022-08-23T15:37:16.175Z,23.20
2022-08-23T15:40:20.763Z,23.10
2022-08-23T15:43:33.908Z,23.10
2022-08-23T15:46:39.418Z,23.00
2022-08-23T15:49:44.057Z,23.00
2022-08-23T15:52:47.232Z,23.00
2022-08-23T15:55:51.289Z,23.10
2022-08-23T15:58:55.786Z,23.00
2022-08-23T16:01:58.961Z,23.00
2022-08-23T16:05:03.990Z,23.00
2022-08-23T16:08:09.591Z,23.00
2022-08-23T16:11:13.186Z,23.00
2022-08-23T16:14:16.504Z,22.90
2022-08-23T16:17:20.623Z,22.90
2022-08-23T16:20:25.496Z,22.90
2022-08-23T16:23:29.119Z,22.90
2022-08-23T16:26:35.647Z,22.80
2022-08-23T16:29:40.968Z,22.80
2022-08-23T16:32:44.197Z,22.90
2022-08-23T16:35:48.686Z,22.80
2022-08-23T16:38:54.047Z,22.70
2022-08-23T16:41:57.665Z,22.70
2022-08-23T16:45:00.856Z,22.70
2022-08-23T16:48:04.305Z,22.70
2022-08-23T16:51:09.033Z,22.60
2022-08-23T16:54:12.470Z,22.70
2022-08-23T16:57:16.461Z,22.70
2022-08-23T17:00:19.693Z,22.70
2022-08-23T17:03:23.521Z,22.60
2022-08-23T17:06:28.353Z,22.50
2022-08-23T17:09:31.516Z,22.40
2022-08-23T17:12:36.522Z,22.40
2022-08-23T17:15:39.770Z,22.40
2022-08-23T17:18:42.977Z,22.40
2022-08-23T17:21:47.483Z,22.40
2022-08-23T17:24:53.242Z,22.30
2022-08-23T17:27:58.222Z,22.30
2022-08-23T17:31:01.553Z,22.30
2022-08-23T17:34:04.959Z,22.30
2022-08-23T17:37:18.098Z,22.40
2022-08-23T17:40:25.565Z,22.30
2022-08-23T17:43:29.302Z,22.30
2022-08-23T17:46:34.653Z,22.20
2022-08-23T17:49:37.853Z,22.20
2022-08-23T17:52:42.524Z,22.20
2022-08-23T17:55:46.020Z,22.10
2022-08-23T17:58:49.479Z,22.10
2022-08-23T18:01:52.691Z,22.10
2022-08-23T18:04:55.971Z,22.10
2022-08-23T18:08:01.176Z,22.10
2022-08-23T18:11:04.409Z,22.10
2022-08-23T18:14:07.926Z,22.10
2022-08-23T18:17:11.154Z,22.10
2022-08-23T18:20:15.388Z,22.10
2022-08-23T18:23:20.035Z,22.00
2022-08-23T18:26:40.917Z,22.10
2022-08-23T18:29:47.395Z,22.10
2022-08-23T18:32:55.491Z,22.10
2022-08-23T18:35:58.708Z,22.10
2022-08-23T18:39:03.542Z,22.00
2022-08-23T18:42:09.486Z,22.00
2022-08-23T18:45:14.240Z,22.00
2022-08-23T18:48:18.320Z,21.90
2022-08-23T18:51:22.456Z,21.80
2022-08-23T18:54:29.807Z,21.80
2022-08-23T18:57:36.734Z,21.80
2022-08-23T19:00:40.543Z,21.80
2022-08-23T19:03:44.017Z,21.80
2022-08-23T19:06:47.555Z,21.80
2022-08-23T19:09:52.450Z,21.80
2022-08-23T19:12:55.968Z,21.80
2022-08-23T19:15:59.493Z,21.70
2022-08-23T19:19:03.133Z,21.70
2022-08-23T19:22:06.697Z,21.70
2022-08-23T19:25:12.714Z,21.60
2022-08-23T19:28:17.705Z,21.60
2022-08-23T19:31:21.246Z,21.60
2022-08-23T19:34:25.084Z,21.50
2022-08-23T19:37:28.796Z,21.50
2022-08-23T19:40:34.669Z,21.50
2022-08-23T19:43:39.312Z,21.50
2022-08-23T19:46:43.015Z,21.40
2022-08-23T19:49:46.621Z,21.40
2022-08-23T19:52:50.091Z,21.40
2022-08-23T19:55:55.133Z,21.40
2022-08-23T19:58:58.617Z,21.40
2022-08-23T20:02:03.247Z,21.40
2022-08-23T20:05:08.714Z,21.40
2022-08-23T20:08:12.233Z,21.40
2022-08-23T20:11:17.002Z,21.40
2022-08-23T20:14:21.571Z,21.40
2022-08-23T20:17:25.030Z,21.30
2022-08-23T20:20:28.876Z,21.30
2022-08-23T20:23:50.111Z,21.20
2022-08-23T20:26:55.158Z,21.20
2022-08-23T20:29:59.433Z,21.20
2022-08-23T20:33:03.709Z,21.20
2022-08-23T20:36:07.422Z,21.10
2022-08-23T20:39:10.920Z,21.10
2022-08-23T20:42:15.879Z,21.00
2022-08-23T20:45:19.466Z,21.00
2022-08-23T20:48:23.344Z,20.90
2022-08-23T20:51:27.550Z,21.00
2022-08-23T20:54:30.709Z,20.90
2022-08-23T20:57:37.322Z,20.90
2022-08-23T21:00:41.924Z,20.80
2022-08-23T21:03:45.554Z,20.80
2022-08-23T21:06:51.448Z,20.80
2022-08-23T21:09:54.630Z,20.70
2022-08-23T21:12:59.312Z,20.70
2022-08-23T21:16:02.873Z,20.60
2022-08-23T21:19:06.191Z,20.60
2022-08-23T21:22:09.998Z,20.50
2022-08-23T21:25:13.332Z,20.50
2022-08-23T21:28:18.546Z,20.40
2022-08-23T21:31:24.420Z,20.30
2022-08-23T21:34:28.012Z,20.20
2022-08-23T21:37:31.807Z,20.20
2022-08-23T21:40:35.581Z,20.10
2022-08-23T21:43:41.222Z,20.10
2022-08-23T21:46:45.798Z,20.10
2022-08-23T21:49:49.194Z,20.00
2022-08-23T21:52:56.295Z,20.00
2022-08-23T21:56:07.735Z,19.90
2022-08-23T21:59:14.378Z,19.80
2022-08-23T22:02:18.091Z,19.80
2022-08-23T22:05:22.383Z,19.70
2022-08-23T22:08:26.026Z,19.60
2022-08-23T22:11:29.514Z,19.60
2022-08-23T22:14:34.432Z,19.60
2022-08-23T22:17:38.601Z,19.60
2022-08-23T22:20:41.730Z,19.60
2022-08-23T22:23:44.962Z,19.50
2022-08-23T22:26:48.844Z,19.50
2022-08-23T22:29:53.759Z,19.60
2022-08-23T22:32:57.291Z,19.40
2022-08-23T22:36:03.569Z,19.40
2022-08-23T22:39:07.477Z,19.40
2022-08-23T22:42:11.311Z,19.40
2022-08-23T22:45:16.021Z,19.30
2022-08-23T22:48:19.205Z,19.30
2022-08-23T22:51:24.648Z,19.20
2022-08-23T22:54:27.781Z,19.20
2022-08-23T22:57:30.906Z,19.10
2022-08-23T23:00:36.533Z,19.10
2022-08-23T23:03:40.476Z,19.00
2022-08-23T23:06:44.661Z,19.00
2022-08-23T23:09:47.777Z,18.90
2022-08-23T23:12:50.871Z,18.80
2022-08-23T23:15:55.570Z,18.90
2022-08-23T23:19:22.227Z,18.70
2022-08-23T23:22:25.328Z,18.70
2022-08-23T23:25:28.416Z,18.70
2022-08-23T23:28:34.841Z,18.70
2022-08-23T23:31:40.466Z,18.70
2022-08-23T23:34:43.620Z,18.70
2022-08-23T23:37:49.604Z,18.70
2022-08-23T23:40:53.075Z,18.60
2022-08-23T23:43:56.251Z,18.60
2022-08-23T23:47:01.361Z,18.60
2022-08-23T23:50:04.865Z,18.60
2022-08-23T23:53:07.996Z,18.50
2022-08-23T23:56:14.055Z,18.50
2022-08-23T23:59:17.183Z,18.40
